Portada
METAR-TAF:

METAR-TAF

Aeroports :

Reims, França

latitud: 49-12-31N, longitud: 004-09-24E, altitud: 95 m

Observació

L'informe es va fer fa 36 minuts, a les 20:30 UTC
Vent 3 kt del Est
Temperatura 17°C
Humitat 77%
Pressió 1013 hPa
Visibilitat 10 km o més
sense núvols per sota de 1500 mi sense presència de cumulonimbus.

METAR: LFQA 192030Z AUTO 08003KT CAVOK 17/13 Q1013

Hora: 23:06 (21:06 UTC)


TAF: manca

Observacions i pronòstics meteorològics de més de 4000 aeroports (METAR i TAF).

Les estacions disponibles són els punts grocs i vermells al mapa.

Posi el ratolí al punt desitjat per veure el nom de l'estació.

Feu clic per veure les observacions i els pronòstics meteorològics.

Per canviar el mapa: feu clic els botons verds amb una creu de color negre per apropar; al botó verd amb un guió per allunyar la imatge; o en les fletxes verdes per a mapes adjacents.


METAR-TAF: